Main page
METAR-TAF:

METAR-TAF

Airports :

Ventspils International Airport

Ventspils, Latvia

latitude: 57-21-28N, longitude: 021-32-39E, elevation: 6 m

Current weather observation

The report was made 23 minutes ago, at 17:50 UTC
Wind 7 kt from the North
Temperature 19°C
Humidity 88%
Pressure 1015 hPa
Visibility 10 km or more
no clouds below 1500 m and no cumulonimbus

METAR: EVVA 241750Z AUTO 01007KT CAVOK 19/17 Q1015

Time: 21:13 (18:13 UTC)

Forecast

The report was made 4 hours and 9 minutes ago, at 14:04 UTC
Forecast valid from 24 at 15 UTC to 24 at 24 UTC
Wind 5 kt from the Southwest
Visibility 10 km or more
Scattered clouds at a height of 2000 ft
Temporary
from 24 at 21 UTC to 24 at 24 UTC
Visibility: 3000 m
Broken clouds at a height of 1000 ft
Broken clouds at a height of 1500 ft, Cumulonimbus.
thunderstorm, rain

TAF: EVVA 241404Z 2415/2424 23005KT 9999 SCT020 TEMPO 2421/2424 3000 TSRA BKN010 BKN015CB

Weather observations and forecasts of more than 4000 airports (METAR and TAF reports).

The available stations are represented by yellow and red dots on the map.

Hover mouse over dot to see the name of the station.

Then click to see weather observations and forecasts.

To change the map : click on the green buttons with a black cross to zoom in, on the green button with a dash to zoom out, or on the green arrows for adjacent maps.


METAR-TAF: